sensor_id;sensor_type;location;lat;lon;timestamp;P1;durP1;ratioP1;P2;durP2;ratioP2
19951;SDS011;10137;49.406;19.484;2022-09-09T00:02:18;3.38;;;1.42;;
19951;SDS011;10137;49.406;19.484;2022-09-09T00:04:50;2.28;;;1.38;;
19951;SDS011;10137;49.406;19.484;2022-09-09T00:07:29;1.65;;;1.33;;
19951;SDS011;10137;49.406;19.484;2022-09-09T00:10:13;2.83;;;1.65;;
19951;SDS011;10137;49.406;19.484;2022-09-09T00:12:51;2.42;;;1.38;;
19951;SDS011;10137;49.406;19.484;2022-09-09T00:15:25;1.40;;;1.30;;
19951;SDS011;10137;49.406;19.484;2022-09-09T00:18:01;1.93;;;1.17;;
19951;SDS011;10137;49.406;19.484;2022-09-09T00:20:35;1.50;;;1.20;;
19951;SDS011;10137;49.406;19.484;2022-09-09T00:23:14;0.90;;;0.90;;
19951;SDS011;10137;49.406;19.484;2022-09-09T00:25:49;1.83;;;1.20;;
19951;SDS011;10137;49.406;19.484;2022-09-09T00:28:22;1.60;;;1.10;;
19951;SDS011;10137;49.406;19.484;2022-09-09T00:30:52;1.83;;;1.10;;
19951;SDS011;10137;49.406;19.484;2022-09-09T00:33:22;1.17;;;0.90;;
19951;SDS011;10137;49.406;19.484;2022-09-09T00:35:52;1.27;;;0.80;;
19951;SDS011;10137;49.406;19.484;2022-09-09T00:38:25;0.90;;;0.90;;
19951;SDS011;10137;49.406;19.484;2022-09-09T00:41:00;2.93;;;1.17;;
19951;SDS011;10137;49.406;19.484;2022-09-09T00:43:36;1.90;;;1.00;;
19951;SDS011;10137;49.406;19.484;2022-09-09T00:46:18;2.53;;;0.90;;
19951;SDS011;10137;49.406;19.484;2022-09-09T00:49:02;1.30;;;0.90;;
19951;SDS011;10137;49.406;19.484;2022-09-09T00:51:39;1.40;;;1.00;;
19951;SDS011;10137;49.406;19.484;2022-09-09T00:54:26;3.17;;;1.10;;
19951;SDS011;10137;49.406;19.484;2022-09-09T00:57:03;1.00;;;1.00;;
19951;SDS011;10137;49.406;19.484;2022-09-09T00:59:44;1.20;;;1.10;;
19951;SDS011;10137;49.406;19.484;2022-09-09T01:02:16;2.07;;;1.03;;
19951;SDS011;10137;49.406;19.484;2022-09-09T01:04:54;1.70;;;1.20;;
19951;SDS011;10137;49.406;19.484;2022-09-09T01:07:26;6.13;;;1.60;;
19951;SDS011;10137;49.406;19.484;2022-09-09T01:09:55;3.03;;;1.30;;
19951;SDS011;10137;49.406;19.484;2022-09-09T01:12:25;2.30;;;1.40;;
19951;SDS011;10137;49.406;19.484;2022-09-09T01:14:58;2.53;;;1.73;;
19951;SDS011;10137;49.406;19.484;2022-09-09T01:17:34;3.43;;;1.40;;
19951;SDS011;10137;49.406;19.484;2022-09-09T01:20:06;3.33;;;1.50;;
19951;SDS011;10137;49.406;19.484;2022-09-09T01:22:42;2.70;;;1.60;;
19951;SDS011;10137;49.406;19.484;2022-09-09T01:25:28;2.27;;;1.80;;
19951;SDS011;10137;49.406;19.484;2022-09-09T01:27:59;1.67;;;1.57;;
19951;SDS011;10137;49.406;19.484;2022-09-09T01:30:28;1.87;;;1.70;;
19951;SDS011;10137;49.406;19.484;2022-09-09T01:32:56;1.60;;;1.47;;
19951;SDS011;10137;49.406;19.484;2022-09-09T01:35:37;1.60;;;1.50;;
19951;SDS011;10137;49.406;19.484;2022-09-09T01:38:09;3.23;;;1.70;;
19951;SDS011;10137;49.406;19.484;2022-09-09T01:40:37;1.70;;;1.60;;
19951;SDS011;10137;49.406;19.484;2022-09-09T01:43:06;4.17;;;1.80;;
19951;SDS011;10137;49.406;19.484;2022-09-09T01:45:34;2.03;;;1.83;;
19951;SDS011;10137;49.406;19.484;2022-09-09T01:48:02;2.23;;;1.60;;
19951;SDS011;10137;49.406;19.484;2022-09-09T01:50:30;2.07;;;1.57;;
19951;SDS011;10137;49.406;19.484;2022-09-09T01:52:58;1.90;;;1.40;;
19951;SDS011;10137;49.406;19.484;2022-09-09T01:55:28;2.70;;;1.70;;
19951;SDS011;10137;49.406;19.484;2022-09-09T01:58:00;2.33;;;2.00;;
19951;SDS011;10137;49.406;19.484;2022-09-09T02:00:44;3.97;;;1.90;;
19951;SDS011;10137;49.406;19.484;2022-09-09T02:03:20;1.93;;;1.60;;
19951;SDS011;10137;49.406;19.484;2022-09-09T02:05:55;2.00;;;1.80;;
19951;SDS011;10137;49.406;19.484;2022-09-09T02:08:33;3.40;;;1.50;;
19951;SDS011;10137;49.406;19.484;2022-09-09T02:11:07;1.60;;;1.50;;
19951;SDS011;10137;49.406;19.484;2022-09-09T02:13:40;1.93;;;1.83;;
19951;SDS011;10137;49.406;19.484;2022-09-09T02:16:12;3.37;;;1.50;;
19951;SDS011;10137;49.406;19.484;2022-09-09T02:18:45;2.10;;;1.47;;
19951;SDS011;10137;49.406;19.484;2022-09-09T02:21:17;2.10;;;1.80;;
19951;SDS011;10137;49.406;19.484;2022-09-09T02:23:49;3.57;;;1.60;;
19951;SDS011;10137;49.406;19.484;2022-09-09T02:26:18;1.50;;;1.40;;
19951;SDS011;10137;49.406;19.484;2022-09-09T02:28:50;2.23;;;1.70;;
19951;SDS011;10137;49.406;19.484;2022-09-09T02:31:21;1.60;;;1.50;;
19951;SDS011;10137;49.406;19.484;2022-09-09T02:33:51;2.10;;;1.70;;
19951;SDS011;10137;49.406;19.484;2022-09-09T02:36:23;1.67;;;1.50;;
19951;SDS011;10137;49.406;19.484;2022-09-09T02:38:51;2.60;;;1.60;;
19951;SDS011;10137;49.406;19.484;2022-09-09T02:41:19;3.93;;;2.00;;
19951;SDS011;10137;49.406;19.484;2022-09-09T02:43:53;2.40;;;1.60;;
19951;SDS011;10137;49.406;19.484;2022-09-09T02:49:16;1.70;;;1.60;;
19951;SDS011;10137;49.406;19.484;2022-09-09T02:51:51;1.73;;;1.63;;
19951;SDS011;10137;49.406;19.484;2022-09-09T02:54:28;2.17;;;1.70;;
19951;SDS011;10137;49.406;19.484;2022-09-09T02:56:58;7.03;;;1.93;;
19951;SDS011;10137;49.406;19.484;2022-09-09T02:59:32;2.33;;;1.90;;
19951;SDS011;10137;49.406;19.484;2022-09-09T03:02:00;3.33;;;1.73;;
19951;SDS011;10137;49.406;19.484;2022-09-09T03:04:29;3.13;;;1.70;;
19951;SDS011;10137;49.406;19.484;2022-09-09T03:06:57;4.60;;;1.87;;
19951;SDS011;10137;49.406;19.484;2022-09-09T03:09:25;2.00;;;1.90;;
19951;SDS011;10137;49.406;19.484;2022-09-09T03:11:52;1.77;;;1.67;;
19951;SDS011;10137;49.406;19.484;2022-09-09T03:14:20;2.87;;;1.90;;
19951;SDS011;10137;49.406;19.484;2022-09-09T03:16:51;5.63;;;2.03;;
19951;SDS011;10137;49.406;19.484;2022-09-09T03:19:19;2.30;;;2.10;;
19951;SDS011;10137;49.406;19.484;2022-09-09T03:21:47;2.33;;;2.10;;
19951;SDS011;10137;49.406;19.484;2022-09-09T03:24:15;2.73;;;2.47;;
19951;SDS011;10137;49.406;19.484;2022-09-09T03:26:42;2.30;;;2.10;;
19951;SDS011;10137;49.406;19.484;2022-09-09T03:29:10;3.33;;;2.03;;
19951;SDS011;10137;49.406;19.484;2022-09-09T03:31:39;2.60;;;2.00;;
19951;SDS011;10137;49.406;19.484;2022-09-09T03:34:14;2.23;;;2.03;;
19951;SDS011;10137;49.406;19.484;2022-09-09T03:36:41;3.93;;;1.90;;
19951;SDS011;10137;49.406;19.484;2022-09-09T03:39:09;2.93;;;2.10;;
19951;SDS011;10137;49.406;19.484;2022-09-09T03:41:36;4.73;;;2.50;;
19951;SDS011;10137;49.406;19.484;2022-09-09T03:44:04;4.90;;;2.03;;
19951;SDS011;10137;49.406;19.484;2022-09-09T03:46:31;2.77;;;2.13;;
19951;SDS011;10137;49.406;19.484;2022-09-09T03:48:58;2.10;;;1.90;;
19951;SDS011;10137;49.406;19.484;2022-09-09T03:51:28;3.40;;;2.00;;
19951;SDS011;10137;49.406;19.484;2022-09-09T03:53:56;3.20;;;1.97;;
19951;SDS011;10137;49.406;19.484;2022-09-09T03:56:25;9.53;;;2.30;;
19951;SDS011;10137;49.406;19.484;2022-09-09T03:58:52;2.53;;;2.20;;
19951;SDS011;10137;49.406;19.484;2022-09-09T04:01:20;2.90;;;2.03;;
19951;SDS011;10137;49.406;19.484;2022-09-09T04:03:47;5.87;;;2.43;;
19951;SDS011;10137;49.406;19.484;2022-09-09T04:06:15;2.83;;;2.30;;
19951;SDS011;10137;49.406;19.484;2022-09-09T04:08:45;2.40;;;2.20;;
19951;SDS011;10137;49.406;19.484;2022-09-09T04:11:15;3.37;;;2.33;;
19951;SDS011;10137;49.406;19.484;2022-09-09T04:13:42;1.97;;;1.87;;
19951;SDS011;10137;49.406;19.484;2022-09-09T04:16:11;3.53;;;2.20;;
19951;SDS011;10137;49.406;19.484;2022-09-09T04:18:42;2.70;;;2.30;;
19951;SDS011;10137;49.406;19.484;2022-09-09T04:21:10;2.43;;;2.23;;
19951;SDS011;10137;49.406;19.484;2022-09-09T04:23:38;2.43;;;2.23;;
19951;SDS011;10137;49.406;19.484;2022-09-09T04:26:08;2.60;;;2.40;;
19951;SDS011;10137;49.406;19.484;2022-09-09T04:28:36;3.47;;;2.43;;
19951;SDS011;10137;49.406;19.484;2022-09-09T04:31:05;3.80;;;2.50;;
19951;SDS011;10137;49.406;19.484;2022-09-09T04:33:35;2.93;;;2.23;;
19951;SDS011;10137;49.406;19.484;2022-09-09T04:36:05;3.57;;;2.53;;
19951;SDS011;10137;49.406;19.484;2022-09-09T04:38:34;2.17;;;1.97;;
19951;SDS011;10137;49.406;19.484;2022-09-09T04:41:02;4.13;;;2.20;;
19951;SDS011;10137;49.406;19.484;2022-09-09T04:43:32;2.30;;;2.10;;
19951;SDS011;10137;49.406;19.484;2022-09-09T04:46:00;2.53;;;2.30;;
19951;SDS011;10137;49.406;19.484;2022-09-09T04:48:27;1.90;;;1.80;;
19951;SDS011;10137;49.406;19.484;2022-09-09T04:51:01;2.30;;;2.10;;
19951;SDS011;10137;49.406;19.484;2022-09-09T04:53:34;3.27;;;2.20;;
19951;SDS011;10137;49.406;19.484;2022-09-09T04:56:05;2.83;;;2.50;;
19951;SDS011;10137;49.406;19.484;2022-09-09T04:58:35;2.77;;;2.37;;
19951;SDS011;10137;49.406;19.484;2022-09-09T05:01:05;4.27;;;2.60;;
19951;SDS011;10137;49.406;19.484;2022-09-09T05:03:37;3.77;;;2.47;;
19951;SDS011;10137;49.406;19.484;2022-09-09T05:06:05;4.83;;;2.53;;
19951;SDS011;10137;49.406;19.484;2022-09-09T05:08:35;6.77;;;2.60;;
19951;SDS011;10137;49.406;19.484;2022-09-09T05:11:04;3.87;;;2.60;;
19951;SDS011;10137;49.406;19.484;2022-09-09T05:13:41;5.47;;;2.70;;
19951;SDS011;10137;49.406;19.484;2022-09-09T05:16:08;4.83;;;2.83;;
19951;SDS011;10137;49.406;19.484;2022-09-09T05:18:36;4.90;;;3.07;;
19951;SDS011;10137;49.406;19.484;2022-09-09T05:21:03;3.63;;;2.80;;
19951;SDS011;10137;49.406;19.484;2022-09-09T05:23:31;6.97;;;3.57;;
19951;SDS011;10137;49.406;19.484;2022-09-09T05:25:59;4.97;;;3.30;;
19951;SDS011;10137;49.406;19.484;2022-09-09T05:28:26;4.63;;;3.10;;
19951;SDS011;10137;49.406;19.484;2022-09-09T05:31:00;3.40;;;2.87;;
19951;SDS011;10137;49.406;19.484;2022-09-09T05:33:29;6.60;;;3.20;;
19951;SDS011;10137;49.406;19.484;2022-09-09T05:35:56;7.53;;;3.57;;
19951;SDS011;10137;49.406;19.484;2022-09-09T05:38:24;3.37;;;3.00;;
19951;SDS011;10137;49.406;19.484;2022-09-09T05:40:51;6.07;;;3.47;;
19951;SDS011;10137;49.406;19.484;2022-09-09T05:43:18;5.03;;;3.00;;
19951;SDS011;10137;49.406;19.484;2022-09-09T05:45:58;4.50;;;2.90;;
19951;SDS011;10137;49.406;19.484;2022-09-09T05:48:28;3.67;;;2.83;;
19951;SDS011;10137;49.406;19.484;2022-09-09T05:50:57;6.27;;;2.83;;
19951;SDS011;10137;49.406;19.484;2022-09-09T05:53:24;4.73;;;2.60;;
19951;SDS011;10137;49.406;19.484;2022-09-09T05:55:58;2.87;;;2.43;;
19951;SDS011;10137;49.406;19.484;2022-09-09T05:58:26;3.30;;;2.50;;
19951;SDS011;10137;49.406;19.484;2022-09-09T06:01:01;4.37;;;2.40;;
19951;SDS011;10137;49.406;19.484;2022-09-09T06:03:29;4.20;;;2.10;;
19951;SDS011;10137;49.406;19.484;2022-09-09T06:05:57;3.80;;;2.03;;
19951;SDS011;10137;49.406;19.484;2022-09-09T06:08:24;2.73;;;2.53;;
19951;SDS011;10137;49.406;19.484;2022-09-09T06:10:52;2.50;;;2.30;;
19951;SDS011;10137;49.406;19.484;2022-09-09T06:13:19;5.13;;;2.17;;
19951;SDS011;10137;49.406;19.484;2022-09-09T06:15:49;2.83;;;2.20;;
19951;SDS011;10137;49.406;19.484;2022-09-09T06:18:19;5.47;;;2.40;;
19951;SDS011;10137;49.406;19.484;2022-09-09T06:20:53;4.47;;;2.17;;
19951;SDS011;10137;49.406;19.484;2022-09-09T06:23:20;3.30;;;2.70;;
19951;SDS011;10137;49.406;19.484;2022-09-09T06:25:48;4.37;;;3.03;;
19951;SDS011;10137;49.406;19.484;2022-09-09T06:28:16;4.00;;;2.53;;
19951;SDS011;10137;49.406;19.484;2022-09-09T06:30:43;4.07;;;2.83;;
19951;SDS011;10137;49.406;19.484;2022-09-09T06:33:10;2.93;;;2.10;;
19951;SDS011;10137;49.406;19.484;2022-09-09T06:35:39;3.30;;;2.15;;
19951;SDS011;10137;49.406;19.484;2022-09-09T06:38:08;5.57;;;2.37;;
19951;SDS011;10137;49.406;19.484;2022-09-09T06:40:35;4.97;;;2.65;;
19951;SDS011;10137;49.406;19.484;2022-09-09T06:43:02;3.83;;;3.08;;
19951;SDS011;10137;49.406;19.484;2022-09-09T06:45:30;5.30;;;3.20;;
19951;SDS011;10137;49.406;19.484;2022-09-09T06:47:57;5.20;;;3.10;;
19951;SDS011;10137;49.406;19.484;2022-09-09T06:50:24;10.50;;;3.33;;
19951;SDS011;10137;49.406;19.484;2022-09-09T06:52:52;4.07;;;2.90;;
19951;SDS011;10137;49.406;19.484;2022-09-09T06:55:19;3.35;;;2.65;;
19951;SDS011;10137;49.406;19.484;2022-09-09T06:57:46;5.40;;;2.60;;
19951;SDS011;10137;49.406;19.484;2022-09-09T07:00:13;3.30;;;3.00;;
19951;SDS011;10137;49.406;19.484;2022-09-09T07:02:40;6.95;;;2.67;;
19951;SDS011;10137;49.406;19.484;2022-09-09T07:05:07;4.90;;;2.45;;
19951;SDS011;10137;49.406;19.484;2022-09-09T07:07:36;4.28;;;2.45;;
19951;SDS011;10137;49.406;19.484;2022-09-09T07:10:05;5.35;;;2.70;;
19951;SDS011;10137;49.406;19.484;2022-09-09T07:12:32;3.38;;;2.35;;
19951;SDS011;10137;49.406;19.484;2022-09-09T07:14:59;2.78;;;2.00;;
19951;SDS011;10137;49.406;19.484;2022-09-09T07:17:27;4.68;;;2.28;;
19951;SDS011;10137;49.406;19.484;2022-09-09T07:19:54;5.30;;;2.50;;
19951;SDS011;10137;49.406;19.484;2022-09-09T07:22:21;2.92;;;2.60;;
19951;SDS011;10137;49.406;19.484;2022-09-09T07:24:49;2.60;;;2.40;;
19951;SDS011;10137;49.406;19.484;2022-09-09T07:27:18;4.85;;;2.10;;
19951;SDS011;10137;49.406;19.484;2022-09-09T07:29:45;3.38;;;2.25;;
19951;SDS011;10137;49.406;19.484;2022-09-09T07:32:13;2.35;;;2.15;;
19951;SDS011;10137;49.406;19.484;2022-09-09T07:34:42;2.17;;;1.98;;
19951;SDS011;10137;49.406;19.484;2022-09-09T07:37:11;5.60;;;2.28;;
19951;SDS011;10137;49.406;19.484;2022-09-09T07:39:41;3.92;;;2.10;;
19951;SDS011;10137;49.406;19.484;2022-09-09T07:42:08;4.75;;;2.50;;
19951;SDS011;10137;49.406;19.484;2022-09-09T07:44:38;4.47;;;2.47;;
19951;SDS011;10137;49.406;19.484;2022-09-09T07:47:05;4.47;;;2.47;;
19951;SDS011;10137;49.406;19.484;2022-09-09T07:49:32;4.35;;;2.22;;
19951;SDS011;10137;49.406;19.484;2022-09-09T07:52:00;2.35;;;2.15;;
19951;SDS011;10137;49.406;19.484;2022-09-09T07:54:27;3.33;;;2.03;;
19951;SDS011;10137;49.406;19.484;2022-09-09T07:56:54;5.70;;;2.33;;
19951;SDS011;10137;49.406;19.484;2022-09-09T07:59:21;2.17;;;1.98;;
19951;SDS011;10137;49.406;19.484;2022-09-09T08:01:51;3.00;;;1.67;;
19951;SDS011;10137;49.406;19.484;2022-09-09T08:04:20;2.70;;;2.08;;
19951;SDS011;10137;49.406;19.484;2022-09-09T08:06:50;3.78;;;2.20;;
19951;SDS011;10137;49.406;19.484;2022-09-09T08:09:18;2.05;;;1.85;;
19951;SDS011;10137;49.406;19.484;2022-09-09T08:11:46;4.20;;;1.90;;
19951;SDS011;10137;49.406;19.484;2022-09-09T08:14:14;4.53;;;2.05;;
19951;SDS011;10137;49.406;19.484;2022-09-09T08:16:42;2.08;;;1.67;;
19951;SDS011;10137;49.406;19.484;2022-09-09T08:19:12;2.72;;;1.80;;
19951;SDS011;10137;49.406;19.484;2022-09-09T08:21:40;1.92;;;1.80;;
19951;SDS011;10137;49.406;19.484;2022-09-09T08:24:09;2.33;;;1.85;;
19951;SDS011;10137;49.406;19.484;2022-09-09T08:26:38;3.42;;;1.67;;
19951;SDS011;10137;49.406;19.484;2022-09-09T08:29:07;2.55;;;1.73;;
19951;SDS011;10137;49.406;19.484;2022-09-09T08:31:39;2.65;;;1.60;;
19951;SDS011;10137;49.406;19.484;2022-09-09T08:34:10;1.67;;;1.50;;
19951;SDS011;10137;49.406;19.484;2022-09-09T08:36:40;2.22;;;1.50;;
19951;SDS011;10137;49.406;19.484;2022-09-09T08:39:09;3.35;;;1.60;;
19951;SDS011;10137;49.406;19.484;2022-09-09T08:41:48;5.75;;;1.70;;
19951;SDS011;10137;49.406;19.484;2022-09-09T08:44:39;1.77;;;1.33;;
19951;SDS011;10137;49.406;19.484;2022-09-09T08:47:31;1.58;;;1.30;;
19951;SDS011;10137;49.406;19.484;2022-09-09T08:50:16;1.70;;;1.48;;
19951;SDS011;10137;49.406;19.484;2022-09-09T08:52:51;1.80;;;1.30;;
19951;SDS011;10137;49.406;19.484;2022-09-09T08:55:24;2.95;;;1.20;;
19951;SDS011;10137;49.406;19.484;2022-09-09T08:57:57;2.78;;;1.40;;
19951;SDS011;10137;49.406;19.484;2022-09-09T09:00:27;2.10;;;1.25;;
19951;SDS011;10137;49.406;19.484;2022-09-09T09:03:06;1.17;;;1.08;;
19951;SDS011;10137;49.406;19.484;2022-09-09T09:05:44;3.45;;;1.48;;
19951;SDS011;10137;49.406;19.484;2022-09-09T09:08:17;1.98;;;1.02;;
19951;SDS011;10137;49.406;19.484;2022-09-09T09:10:54;3.10;;;1.10;;
19951;SDS011;10137;49.406;19.484;2022-09-09T09:13:26;1.30;;;1.20;;
19951;SDS011;10137;49.406;19.484;2022-09-09T09:16:02;2.67;;;1.30;;
19951;SDS011;10137;49.406;19.484;2022-09-09T09:18:51;1.40;;;1.30;;
19951;SDS011;10137;49.406;19.484;2022-09-09T09:21:21;1.58;;;1.27;;
19951;SDS011;10137;49.406;19.484;2022-09-09T09:24:00;1.40;;;1.10;;
19951;SDS011;10137;49.406;19.484;2022-09-09T09:26:30;3.78;;;1.30;;
19951;SDS011;10137;49.406;19.484;2022-09-09T09:29:00;1.90;;;1.42;;
19951;SDS011;10137;49.406;19.484;2022-09-09T09:31:34;1.20;;;1.10;;
19951;SDS011;10137;49.406;19.484;2022-09-09T09:34:01;2.35;;;1.30;;
19951;SDS011;10137;49.406;19.484;2022-09-09T09:36:37;2.15;;;1.10;;
19951;SDS011;10137;49.406;19.484;2022-09-09T09:39:07;1.58;;;1.02;;
19951;SDS011;10137;49.406;19.484;2022-09-09T09:41:35;1.20;;;1.10;;
19951;SDS011;10137;49.406;19.484;2022-09-09T09:44:04;1.10;;;1.00;;
19951;SDS011;10137;49.406;19.484;2022-09-09T09:46:32;1.02;;;0.98;;
19951;SDS011;10137;49.406;19.484;2022-09-09T09:48:59;0.90;;;0.90;;
19951;SDS011;10137;49.406;19.484;2022-09-09T09:51:28;1.23;;;1.08;;
19951;SDS011;10137;49.406;19.484;2022-09-09T09:54:13;3.13;;;1.10;;
19951;SDS011;10137;49.406;19.484;2022-09-09T09:56:44;1.15;;;1.05;;
19951;SDS011;10137;49.406;19.484;2022-09-09T09:59:22;1.15;;;1.00;;
19951;SDS011;10137;49.406;19.484;2022-09-09T10:02:05;2.55;;;1.00;;
19951;SDS011;10137;49.406;19.484;2022-09-09T10:04:44;2.25;;;1.27;;
19951;SDS011;10137;49.406;19.484;2022-09-09T10:07:11;2.58;;;1.00;;
19951;SDS011;10137;49.406;19.484;2022-09-09T10:09:43;0.80;;;0.80;;
19951;SDS011;10137;49.406;19.484;2022-09-09T10:12:13;2.13;;;1.20;;
19951;SDS011;10137;49.406;19.484;2022-09-09T10:14:49;2.35;;;0.98;;
19951;SDS011;10137;49.406;19.484;2022-09-09T10:17:23;1.15;;;0.95;;
19951;SDS011;10137;49.406;19.484;2022-09-09T10:20:00;1.60;;;0.90;;
19951;SDS011;10137;49.406;19.484;2022-09-09T10:22:42;3.50;;;1.02;;
19951;SDS011;10137;49.406;19.484;2022-09-09T10:25:32;1.83;;;1.20;;
19951;SDS011;10137;49.406;19.484;2022-09-09T10:28:23;3.60;;;1.05;;
19951;SDS011;10137;49.406;19.484;2022-09-09T10:31:02;2.33;;;0.70;;
19951;SDS011;10137;49.406;19.484;2022-09-09T10:33:44;2.05;;;1.10;;
19951;SDS011;10137;49.406;19.484;2022-09-09T10:36:17;1.17;;;0.93;;
19951;SDS011;10137;49.406;19.484;2022-09-09T10:38:48;2.05;;;0.80;;
19951;SDS011;10137;49.406;19.484;2022-09-09T10:41:31;1.02;;;0.90;;
19951;SDS011;10137;49.406;19.484;2022-09-09T10:44:20;1.00;;;0.90;;
19951;SDS011;10137;49.406;19.484;2022-09-09T10:50:31;0.80;;;0.80;;
19951;SDS011;10137;49.406;19.484;2022-09-09T10:53:09;2.67;;;0.98;;
19951;SDS011;10137;49.406;19.484;2022-09-09T10:55:45;1.15;;;0.80;;
19951;SDS011;10137;49.406;19.484;2022-09-09T10:58:20;1.02;;;0.90;;
19951;SDS011;10137;49.406;19.484;2022-09-09T11:00:54;2.72;;;1.20;;
19951;SDS011;10137;49.406;19.484;2022-09-09T11:03:27;1.55;;;1.35;;
19951;SDS011;10137;49.406;19.484;2022-09-09T11:05:56;2.95;;;1.00;;
19951;SDS011;10137;49.406;19.484;2022-09-09T11:08:28;1.25;;;0.85;;
19951;SDS011;10137;49.406;19.484;2022-09-09T11:10:57;4.68;;;1.40;;
19951;SDS011;10137;49.406;19.484;2022-09-09T11:13:30;1.85;;;1.10;;
19951;SDS011;10137;49.406;19.484;2022-09-09T11:16:05;2.10;;;0.98;;
19951;SDS011;10137;49.406;19.484;2022-09-09T11:18:49;1.15;;;0.85;;
19951;SDS011;10137;49.406;19.484;2022-09-09T11:21:17;1.42;;;0.90;;
19951;SDS011;10137;49.406;19.484;2022-09-09T11:23:50;1.75;;;0.80;;
19951;SDS011;10137;49.406;19.484;2022-09-09T11:26:24;2.22;;;1.30;;
19951;SDS011;10137;49.406;19.484;2022-09-09T11:29:12;1.27;;;1.17;;
19951;SDS011;10137;49.406;19.484;2022-09-09T11:32:03;1.58;;;1.17;;
19951;SDS011;10137;49.406;19.484;2022-09-09T11:34:42;1.10;;;1.00;;
19951;SDS011;10137;49.406;19.484;2022-09-09T11:37:29;1.42;;;0.90;;
19951;SDS011;10137;49.406;19.484;2022-09-09T11:40:19;2.20;;;1.10;;
19951;SDS011;10137;49.406;19.484;2022-09-09T11:43:00;1.98;;;1.00;;
19951;SDS011;10137;49.406;19.484;2022-09-09T11:45:31;3.92;;;1.08;;
19951;SDS011;10137;49.406;19.484;2022-09-09T11:48:02;3.38;;;1.05;;
19951;SDS011;10137;49.406;19.484;2022-09-09T11:50:33;1.48;;;1.20;;
19951;SDS011;10137;49.406;19.484;2022-09-09T11:55:48;1.70;;;1.38;;
19951;SDS011;10137;49.406;19.484;2022-09-09T11:58:34;2.00;;;1.00;;
19951;SDS011;10137;49.406;19.484;2022-09-09T12:03:59;2.55;;;1.17;;
19951;SDS011;10137;49.406;19.484;2022-09-09T12:06:44;1.88;;;1.00;;
19951;SDS011;10137;49.406;19.484;2022-09-09T12:09:19;1.73;;;1.00;;
19951;SDS011;10137;49.406;19.484;2022-09-09T12:11:51;4.30;;;1.10;;
19951;SDS011;10137;49.406;19.484;2022-09-09T12:14:23;1.13;;;1.02;;
19951;SDS011;10137;49.406;19.484;2022-09-09T12:19:59;1.60;;;1.10;;
19951;SDS011;10137;49.406;19.484;2022-09-09T12:22:33;1.30;;;1.20;;
19951;SDS011;10137;49.406;19.484;2022-09-09T12:25:09;1.95;;;1.17;;
19951;SDS011;10137;49.406;19.484;2022-09-09T12:27:50;3.05;;;1.27;;
19951;SDS011;10137;49.406;19.484;2022-09-09T12:30:28;1.15;;;0.90;;
19951;SDS011;10137;49.406;19.484;2022-09-09T12:33:06;1.25;;;0.90;;
19951;SDS011;10137;49.406;19.484;2022-09-09T12:35:40;1.27;;;0.93;;
19951;SDS011;10137;49.406;19.484;2022-09-09T12:38:12;1.20;;;1.00;;
19951;SDS011;10137;49.406;19.484;2022-09-09T12:40:53;1.05;;;1.00;;
19951;SDS011;10137;49.406;19.484;2022-09-09T12:43:21;0.95;;;0.95;;
19951;SDS011;10137;49.406;19.484;2022-09-09T12:45:54;1.50;;;1.40;;
19951;SDS011;10137;49.406;19.484;2022-09-09T12:48:30;2.08;;;0.98;;
19951;SDS011;10137;49.406;19.484;2022-09-09T12:51:00;2.20;;;1.38;;
19951;SDS011;10137;49.406;19.484;2022-09-09T12:53:30;2.40;;;1.40;;
19951;SDS011;10137;49.406;19.484;2022-09-09T12:56:00;1.02;;;0.93;;
19951;SDS011;10137;49.406;19.484;2022-09-09T12:58:29;2.08;;;1.27;;
19951;SDS011;10137;49.406;19.484;2022-09-09T13:01:02;4.90;;;1.27;;
19951;SDS011;10137;49.406;19.484;2022-09-09T13:03:33;1.50;;;1.15;;
19951;SDS011;10137;49.406;19.484;2022-09-09T13:06:11;1.05;;;0.82;;
19951;SDS011;10137;49.406;19.484;2022-09-09T13:08:41;1.48;;;1.00;;
19951;SDS011;10137;49.406;19.484;2022-09-09T13:11:10;2.55;;;1.00;;
19951;SDS011;10137;49.406;19.484;2022-09-09T13:13:42;1.27;;;1.10;;
19951;SDS011;10137;49.406;19.484;2022-09-09T13:16:19;1.50;;;1.30;;
19951;SDS011;10137;49.406;19.484;2022-09-09T13:18:50;1.45;;;1.10;;
19951;SDS011;10137;49.406;19.484;2022-09-09T13:21:18;1.20;;;0.90;;
19951;SDS011;10137;49.406;19.484;2022-09-09T13:23:48;1.10;;;0.80;;
19951;SDS011;10137;49.406;19.484;2022-09-09T13:26:21;1.58;;;0.93;;
19951;SDS011;10137;49.406;19.484;2022-09-09T13:28:51;0.85;;;0.80;;
19951;SDS011;10137;49.406;19.484;2022-09-09T13:31:20;0.65;;;0.60;;
19951;SDS011;10137;49.406;19.484;2022-09-09T13:33:49;5.43;;;1.00;;
19951;SDS011;10137;49.406;19.484;2022-09-09T13:36:26;1.27;;;0.82;;
19951;SDS011;10137;49.406;19.484;2022-09-09T13:38:56;0.85;;;0.82;;
19951;SDS011;10137;49.406;19.484;2022-09-09T13:41:25;1.23;;;1.00;;
19951;SDS011;10137;49.406;19.484;2022-09-09T13:43:57;1.52;;;1.08;;
19951;SDS011;10137;49.406;19.484;2022-09-09T13:46:25;1.30;;;1.10;;
19951;SDS011;10137;49.406;19.484;2022-09-09T13:49:00;1.67;;;1.10;;
19951;SDS011;10137;49.406;19.484;2022-09-09T13:51:30;1.10;;;1.00;;
19951;SDS011;10137;49.406;19.484;2022-09-09T13:54:03;1.10;;;1.00;;
19951;SDS011;10137;49.406;19.484;2022-09-09T13:56:32;2.08;;;1.40;;
19951;SDS011;10137;49.406;19.484;2022-09-09T13:59:00;1.52;;;1.40;;
19951;SDS011;10137;49.406;19.484;2022-09-09T14:01:27;4.63;;;1.10;;
19951;SDS011;10137;49.406;19.484;2022-09-09T14:03:55;3.63;;;1.10;;
19951;SDS011;10137;49.406;19.484;2022-09-09T14:06:23;1.48;;;0.93;;
19951;SDS011;10137;49.406;19.484;2022-09-09T14:08:50;1.02;;;0.70;;
19951;SDS011;10137;49.406;19.484;2022-09-09T14:11:19;3.35;;;0.60;;
19951;SDS011;10137;49.406;19.484;2022-09-09T14:13:47;1.98;;;0.70;;
19951;SDS011;10137;49.406;19.484;2022-09-09T14:16:16;3.00;;;0.90;;
19951;SDS011;10137;49.406;19.484;2022-09-09T14:18:43;1.17;;;0.90;;
19951;SDS011;10137;49.406;19.484;2022-09-09T14:21:11;1.40;;;0.85;;
19951;SDS011;10137;49.406;19.484;2022-09-09T14:23:40;1.73;;;0.90;;
19951;SDS011;10137;49.406;19.484;2022-09-09T14:26:08;1.08;;;0.82;;
19951;SDS011;10137;49.406;19.484;2022-09-09T14:28:36;0.80;;;0.70;;
19951;SDS011;10137;49.406;19.484;2022-09-09T14:31:06;3.10;;;0.95;;
19951;SDS011;10137;49.406;19.484;2022-09-09T14:33:37;0.80;;;0.70;;
19951;SDS011;10137;49.406;19.484;2022-09-09T14:36:05;2.17;;;0.98;;
19951;SDS011;10137;49.406;19.484;2022-09-09T14:38:37;0.80;;;0.80;;
19951;SDS011;10137;49.406;19.484;2022-09-09T14:41:07;1.38;;;0.70;;
19951;SDS011;10137;49.406;19.484;2022-09-09T14:43:37;1.27;;;0.90;;
19951;SDS011;10137;49.406;19.484;2022-09-09T14:46:04;1.15;;;0.90;;
19951;SDS011;10137;49.406;19.484;2022-09-09T14:48:32;2.45;;;0.80;;
19951;SDS011;10137;49.406;19.484;2022-09-09T14:51:04;2.38;;;1.13;;
19951;SDS011;10137;49.406;19.484;2022-09-09T14:53:32;1.63;;;1.00;;
19951;SDS011;10137;49.406;19.484;2022-09-09T14:56:04;0.98;;;0.82;;
19951;SDS011;10137;49.406;19.484;2022-09-09T14:58:32;2.38;;;0.75;;
19951;SDS011;10137;49.406;19.484;2022-09-09T15:01:03;0.85;;;0.85;;
19951;SDS011;10137;49.406;19.484;2022-09-09T15:03:31;2.22;;;0.70;;
19951;SDS011;10137;49.406;19.484;2022-09-09T15:05:58;1.52;;;0.80;;
19951;SDS011;10137;49.406;19.484;2022-09-09T15:08:30;2.65;;;1.30;;
19951;SDS011;10137;49.406;19.484;2022-09-09T15:10:58;1.27;;;0.70;;
19951;SDS011;10137;49.406;19.484;2022-09-09T15:13:27;1.20;;;0.98;;
19951;SDS011;10137;49.406;19.484;2022-09-09T15:15:54;1.40;;;1.05;;